Portada
METAR-TAF:

METAR-TAF

Aeropuertos :

Magdalena, Bolivia

latitud: 13-20S, longitud: 064-07W, altitud: 140 m

Observación

El informe se hizo hace 58 minutos, a las 18:00 UTC
Viento 10 kt del noroeste
Temperatura 32°C
Humedad 71%
Presión 1009 hPa
Visibilidad: 8000 m
Nubes dispersas a una altura de 1700 ft
Escasas nubes a una altura de 2300 ft, Cumulonimbus.
chaparrones en las proximidades

METAR: SLMG 271800Z 32010KT 8000 VCSH SCT017 FEW023CB 32/26 Q1009

Hora: 14:58 (18:58 UTC)


TAF: falta

Observaciones y pronósticos meteorológicos de más de 4000 aeropuertos (mensajes METAR y TAF).

Los puntos amarillos y rojos representan las estaciones disponibles.

Ponga el ratón en el punto deseado para ver el nombre de la estación.

Haga clic para ver las observaciones y los pronósticos meteorológicos.

Para cambiar el mapa : haga clic en los botones verdes con una cruz de color negro para hacer un zoom, en el botón verde con un guión para alejar o en las flechas verdes para mapas adyacentes.


METAR-TAF: